Time;durP1;ratioP1;P1;durP2;ratioP2;P2;SDS_P1;SDS_P2;PMS_P1;PMS_P2;Temp;Humidity;BMP_temperature;BMP_pressure;BME280_temperature;BME280_humidity;BME280_pressure;Samples;Min_cycle;Max_cycle;Signal;HPM_P1;HPM_P2
2022/09/15 00:01:10;;;;;;;2.33;2.10;;;;;;;12.95;93.11;100654.78;5055774;28;20672;-87
2022/09/15 00:03:36;;;;;;;2.30;2.10;;;;;;;12.93;93.26;100661.81;5056452;28;20037;-87
2022/09/15 00:06:02;;;;;;;1.88;1.77;;;;;;;12.91;93.29;100653.19;5056475;28;20045;-86
2022/09/15 00:08:28;;;;;;;1.80;1.70;;;;;;;12.89;93.45;100653.22;5055773;28;20072;-87
2022/09/15 00:10:57;;;;;;;2.00;1.83;;;;;;;12.87;93.48;100648.97;5056280;28;20021;-87
2022/09/15 00:13:24;;;;;;;1.80;1.70;;;;;;;12.87;93.65;100648.97;5056066;28;20271;-87
2022/09/15 00:15:49;;;;;;;;;;;;;;;12.86;93.60;100648.13;5055568;28;20068;-87
2022/09/15 00:18:14;;;;;;;2.10;1.90;;;;;;;12.87;93.49;100654.16;5055910;28;19963;-88
2022/09/15 00:20:41;;;;;;;1.80;1.70;;;;;;;12.85;93.52;100646.41;5055632;28;20029;-87
2022/09/15 00:23:07;;;;;;;2.72;1.60;;;;;;;12.83;93.54;100649.03;5055511;28;20040;-87
2022/09/15 00:25:33;;;;;;;1.70;1.60;;;;;;;12.83;94.10;100643.81;5056162;28;20025;-87
2022/09/15 00:27:58;;;;;;;1.80;1.70;;;;;;;12.83;93.90;100643.81;5055747;28;20035;-87
2022/09/15 00:30:23;;;;;;;1.70;1.50;;;;;;;12.82;93.90;100639.53;5055403;28;20025;-87
2022/09/15 00:32:49;;;;;;;1.60;1.50;;;;;;;12.82;93.84;100642.16;5055645;28;20070;-87
2022/09/15 00:35:14;;;;;;;1.47;1.37;;;;;;;12.81;94.17;100632.63;5055660;28;20047;-87
2022/09/15 00:37:39;;;;;;;1.57;1.47;;;;;;;12.82;94.05;100625.66;5054479;28;20021;-87
2022/09/15 00:40:05;;;;;;;1.67;1.50;;;;;;;12.83;93.80;100625.59;5055648;28;20496;-87
2022/09/15 00:42:31;;;;;;;1.53;1.43;;;;;;;12.86;93.92;100629.88;5055164;28;20032;-87
2022/09/15 00:44:59;;;;;;;1.53;1.43;;;;;;;12.86;94.08;100629.88;5054438;28;20504;-86
2022/09/15 00:47:30;;;;;;;1.80;1.70;;;;;;;12.89;94.10;100628.94;5055151;28;20025;-87
2022/09/15 00:50:02;;;;;;;2.10;1.90;;;;;;;12.94;94.12;100629.69;5055185;28;20604;-87
2022/09/15 00:52:39;;;;;;;2.45;1.95;;;;;;;12.95;94.46;100632.22;5055199;28;20066;-87
2022/09/15 00:55:14;;;;;;;1.65;1.55;;;;;;;12.98;94.52;100628.66;5055375;28;20354;-87
2022/09/15 00:58:08;;;;;;;2.33;2.00;;;;;;;12.98;94.17;100631.28;5054139;28;20509;-87
2022/09/15 01:00:35;;;;;;;2.33;1.95;;;;;;;12.99;94.44;100638.19;5052411;28;20112;-87
2022/09/15 01:03:02;;;;;;;1.95;1.80;;;;;;;13.01;94.63;100641.63;5055139;28;20020;-87
2022/09/15 01:05:30;;;;;;;;;;;;;;;13.03;94.49;100634.63;5054906;28;20029;-86
2022/09/15 01:07:59;;;;;;;2.42;1.95;;;;;;;13.04;94.38;100640.66;5054769;28;20019;-86
2022/09/15 01:10:31;;;;;;;2.60;1.90;;;;;;;13.04;94.64;100631.13;5054046;28;20029;-87
2022/09/15 01:13:03;;;;;;;1.77;1.67;;;;;;;13.06;94.67;100644.09;5057931;28;20073;-87
2022/09/15 01:15:39;;;;;;;2.30;1.77;;;;;;;13.08;95.67;100647.50;5074758;28;20048;-86
2022/09/15 01:18:16;;;;;;;13.60;6.15;;;;;;;13.01;99.29;100652.03;5073132;28;20425;-87
2022/09/15 01:21:12;;;;;;;13.95;6.80;;;;;;;12.98;98.92;100655.59;5056235;28;20087;-86
2022/09/15 01:24:01;;;;;;;;;;;;;;;12.97;97.53;100646.06;5055002;28;20087;-86
2022/09/15 01:26:50;;;;;;;8.45;4.85;;;;;;;13.00;96.63;100642.50;5042900;28;19912;-87
2022/09/15 01:29:21;;;;;;;5.20;3.60;;;;;;;13.03;96.40;100638.94;5054680;28;20479;-87
2022/09/15 01:35:16;;;;;;;3.27;2.70;;;;;;;13.09;96.00;100641.41;5054487;28;20082;-86
2022/09/15 01:37:49;;;;;;;3.17;2.50;;;;;;;13.10;95.72;100630.94;5030754;28;20319;-86
2022/09/15 01:40:17;;;;;;;2.38;2.17;;;;;;;13.12;95.71;100629.13;5071415;28;20028;-86
2022/09/15 01:42:44;;;;;;;2.20;2.00;;;;;;;13.13;95.84;100630.84;5074043;28;20024;-87
2022/09/15 01:45:24;;;;;;;2.50;2.13;;;;;;;13.15;95.41;100627.34;5074066;28;20028;-86
2022/09/15 01:47:52;;;;;;;2.13;1.92;;;;;;;13.17;95.83;100634.22;5073359;28;20031;-86
2022/09/15 01:50:23;;;;;;;1.80;1.70;;;;;;;13.17;95.83;100635.97;5073832;28;20025;-86
2022/09/15 01:52:52;;;;;;;2.30;2.10;;;;;;;13.18;95.62;100637.66;5074168;28;20028;-86
2022/09/15 01:55:24;;;;;;;2.22;1.83;;;;;;;13.17;95.36;100636.81;5073694;28;20381;-86
2022/09/15 01:57:49;;;;;;;2.20;2.00;;;;;;;13.17;95.34;100636.81;5073541;28;20032;-86
2022/09/15 02:00:14;;;;;;;2.37;2.10;;;;;;;13.19;95.45;100639.38;5073715;28;20024;-87
2022/09/15 02:02:47;;;;;;;2.10;1.90;;;;;;;13.19;95.61;100639.38;5072850;28;20079;-86
2022/09/15 02:05:20;;;;;;;2.20;2.00;;;;;;;13.19;95.40;100636.75;5053903;28;20040;-86
2022/09/15 02:08:11;;;;;;;2.17;1.98;;;;;;;13.18;95.47;100637.66;5053298;28;20086;-87
2022/09/15 02:10:48;;;;;;;2.30;2.10;;;;;;;13.17;95.24;100636.81;5053761;28;20037;-86
2022/09/15 02:13:21;;;;;;;2.05;1.85;;;;;;;13.16;95.14;100635.09;5053571;28;20033;-86
2022/09/15 02:15:51;;;;;;;2.10;1.90;;;;;;;13.13;94.97;100632.56;5052191;28;20052;-87
2022/09/15 02:18:33;;;;;;;1.90;1.80;;;;;;;13.12;94.89;100628.25;5053431;28;20446;-86
2022/09/15 02:21:17;;;;;;;1.88;1.67;;;;;;;13.11;95.06;100629.19;5053437;28;20086;-86
2022/09/15 02:23:49;;;;;;;1.90;1.80;;;;;;;13.11;94.76;100632.63;5052304;28;20027;-86
2022/09/15 02:26:21;;;;;;;2.28;2.08;;;;;;;13.11;95.09;100632.63;5053127;28;20048;-87
2022/09/15 02:28:48;;;;;;;2.30;2.10;;;;;;;13.12;94.82;100633.47;5052673;28;20031;-87
2022/09/15 02:31:14;;;;;;;;;;;;;;;13.11;94.84;100631.78;5060772;28;20127;-87
2022/09/15 02:33:44;;;;;;;3.05;2.28;;;;;;;13.11;94.81;100637.00;5071805;28;19913;-87
2022/09/15 02:36:13;;;;;;;2.45;2.25;;;;;;;13.08;94.88;100630.09;5072419;28;20024;-87
2022/09/15 02:38:45;;;;;;;2.50;2.25;;;;;;;13.04;94.64;100630.25;5073273;28;20050;-86
2022/09/15 02:41:12;;;;;;;2.53;2.15;;;;;;;13.01;94.43;100625.97;5073561;28;20112;-87
2022/09/15 02:43:48;;;;;;;;;;;;;;;12.99;94.70;100630.38;5072703;28;20021;-86
2022/09/15 02:46:15;;;;;;;2.50;2.30;;;;;;;12.94;94.65;100635.72;5073259;28;19916;-87
2022/09/15 02:48:40;;;;;;;3.08;2.30;;;;;;;12.90;94.68;100630.66;5072934;28;20025;-86
2022/09/15 02:51:06;;;;;;;2.43;2.13;;;;;;;12.86;94.48;100636.84;5072246;28;20123;-87
2022/09/15 02:53:31;;;;;;;3.47;2.27;;;;;;;12.81;94.49;100634.34;5072645;28;20089;-87
2022/09/15 02:55:56;;;;;;;2.50;2.00;;;;;;;12.78;94.46;100637.91;5070924;28;20028;-86
2022/09/15 02:58:22;;;;;;;2.43;2.13;;;;;;;12.75;94.59;100638.00;5072267;28;20028;-87
2022/09/15 03:00:48;;;;;;;2.53;2.10;;;;;;;12.71;94.59;100638.13;5072713;28;20024;-86
2022/09/15 03:03:14;;;;;;;3.23;2.30;;;;;;;12.67;94.44;100638.19;5072597;28;20396;-87
2022/09/15 03:05:39;;;;;;;4.07;2.40;;;;;;;12.65;94.42;100636.53;5072371;28;20473;-86
2022/09/15 03:08:04;;;;;;;2.50;2.30;;;;;;;12.62;94.55;100634.88;5072907;28;20074;-87
2022/09/15 03:10:31;;;;;;;2.40;2.20;;;;;;;12.60;94.47;100644.47;5072480;28;20013;-87
2022/09/15 03:12:56;;;;;;;;;;;;;;;12.58;94.36;100637.59;5072488;28;20035;-87
2022/09/15 03:15:24;;;;;;;2.73;2.33;;;;;;;12.55;94.28;100643.75;5072700;28;19917;-87
2022/09/15 03:17:50;;;;;;;2.45;2.20;;;;;;;12.54;94.38;100648.97;5071889;28;20434;-86
2022/09/15 03:20:19;;;;;;;2.37;2.10;;;;;;;12.51;94.43;100644.72;5072694;28;20104;-86
2022/09/15 03:22:44;;;;;;;2.38;2.10;;;;;;;12.47;94.57;100648.28;5070786;28;20029;-87
2022/09/15 03:25:10;;;;;;;2.80;2.30;;;;;;;12.44;94.27;100651.84;5051809;28;20496;-87
2022/09/15 03:27:35;;;;;;;2.90;2.20;;;;;;;12.43;94.59;100657.09;5052899;28;20029;-87
2022/09/15 03:30:01;;;;;;;2.33;2.10;;;;;;;12.42;94.68;100664.03;5052009;28;20108;-86
2022/09/15 03:32:27;;;;;;;2.30;2.10;;;;;;;12.43;94.77;100670.94;5051844;28;20025;-86
2022/09/15 03:34:52;;;;;;;2.80;2.17;;;;;;;12.45;94.95;100674.38;5054356;28;20131;-87
2022/09/15 03:37:18;;;;;;;2.13;1.90;;;;;;;12.49;95.03;100677.75;5056369;28;20120;-87
2022/09/15 03:39:43;;;;;;;2.20;2.00;;;;;;;12.49;95.02;100678.63;5055410;28;20033;-87
2022/09/15 03:42:09;;;;;;;2.17;1.97;;;;;;;12.54;95.04;100695.84;5056468;28;20469;-87
2022/09/15 03:44:34;;;;;;;2.10;1.90;;;;;;;12.56;94.77;100687.09;5056469;28;20459;-86
2022/09/15 03:47:00;;;;;;;1.90;1.80;;;;;;;12.59;95.00;100686.19;5055614;28;20032;-87
2022/09/15 03:49:25;;;;;;;2.27;2.07;;;;;;;12.63;95.23;100683.44;5072896;28;20483;-86
2022/09/15 03:51:51;;;;;;;2.10;1.90;;;;;;;12.66;94.95;100691.19;5075581;28;20024;-87
2022/09/15 03:54:16;;;;;;;2.10;1.90;;;;;;;12.69;95.16;100690.25;5076075;28;20028;-87
2022/09/15 03:56:42;;;;;;;2.83;1.80;;;;;;;12.71;95.22;100678.03;5075888;28;20055;-87
2022/09/15 03:59:08;;;;;;;1.50;1.40;;;;;;;12.71;95.37;100671.97;5075942;28;20028;-86
2022/09/15 04:01:34;;;;;;;1.60;1.50;;;;;;;12.73;95.23;100665.81;5075557;28;20040;-87
2022/09/15 04:03:59;;;;;;;2.47;1.70;;;;;;;12.73;95.34;100671.03;5076168;28;20025;-87
2022/09/15 04:06:25;;;;;;;1.70;1.60;;;;;;;12.73;95.47;100676.22;5076088;28;20020;-86
2022/09/15 04:08:53;;;;;;;1.40;1.30;;;;;;;12.73;95.40;100671.03;5075059;28;20424;-86
2022/09/15 04:11:21;;;;;;;1.30;1.20;;;;;;;12.73;95.39;100663.22;5076408;28;20024;-87
2022/09/15 04:13:47;;;;;;;1.42;1.33;;;;;;;12.74;95.52;100674.50;5075619;28;20362;-87
2022/09/15 04:16:16;;;;;;;1.67;1.57;;;;;;;12.73;95.45;100665.81;5074261;28;20056;-87
2022/09/15 04:18:42;;;;;;;1.63;1.52;;;;;;;12.74;95.37;100664.91;5075516;28;20040;-86
2022/09/15 04:21:11;;;;;;;2.00;1.80;;;;;;;12.74;95.46;100675.34;5075571;28;20024;-86
2022/09/15 04:23:37;;;;;;;1.60;1.50;;;;;;;12.74;95.51;100667.53;5076114;28;20025;-86
2022/09/15 04:26:05;;;;;;;1.80;1.70;;;;;;;12.74;95.63;100670.13;5075548;28;20021;-87
2022/09/15 04:28:33;;;;;;;1.90;1.73;;;;;;;12.73;95.52;100673.63;5075089;28;20028;-86
2022/09/15 04:31:07;;;;;;;2.00;1.80;;;;;;;12.76;95.46;100670.94;5075689;28;20025;-86
2022/09/15 04:33:33;;;;;;;2.10;1.80;;;;;;;12.77;95.61;100672.66;5075528;28;20028;-87
2022/09/15 04:36:07;;;;;;;2.20;2.00;;;;;;;12.79;95.32;100662.19;5074627;28;20052;-87
2022/09/15 04:38:34;;;;;;;2.33;2.10;;;;;;;12.80;95.27;100671.72;5075821;28;20038;-87
2022/09/15 04:41:00;;;;;;;;;;;;;;;12.82;95.42;100668.19;5075675;28;20108;-86
2022/09/15 04:43:26;;;;;;;2.60;2.10;;;;;;;12.82;95.44;100660.38;5059270;28;19917;-86
2022/09/15 04:45:51;;;;;;;2.80;2.23;;;;;;;12.85;95.33;100661.16;5055217;28;20444;-87
2022/09/15 04:48:16;;;;;;;2.43;2.23;;;;;;;12.86;95.07;100666.34;5055341;28;20052;-86
2022/09/15 04:50:42;;;;;;;2.30;2.00;;;;;;;12.88;95.27;100668.91;5054422;28;20025;-86
2022/09/15 04:53:08;;;;;;;2.20;2.00;;;;;;;12.89;95.31;100673.22;5055120;28;20484;-87
2022/09/15 04:55:33;;;;;;;2.40;2.20;;;;;;;12.89;95.31;100668.84;5055357;28;20028;-86
2022/09/15 04:58:01;;;;;;;2.27;2.07;;;;;;;12.90;95.22;100674.94;5054252;28;20017;-86
2022/09/15 05:00:26;;;;;;;2.92;2.30;;;;;;;12.90;95.01;100672.31;5055174;28;20021;-86
2022/09/15 05:02:52;;;;;;;3.10;2.00;;;;;;;12.88;95.08;100672.38;5054899;28;20029;-87
2022/09/15 05:05:18;;;;;;;2.33;2.13;;;;;;;12.87;95.18;100675.88;5054593;28;20461;-90
2022/09/15 05:07:44;;;;;;;2.60;2.13;;;;;;;12.88;94.70;100671.50;5066658;28;20033;-85
2022/09/15 05:10:09;;;;;;;2.30;2.10;;;;;;;12.85;95.19;100662.03;5064881;28;20469;-85
2022/09/15 05:12:34;;;;;;;2.47;2.07;;;;;;;12.82;95.10;100665.59;5055267;28;20056;-93
2022/09/15 05:15:18;;;;;;;2.30;2.10;;;;;;;12.82;95.22;100662.97;5052728;28;20041;-91
2022/09/15 05:17:43;;;;;;;2.15;1.95;;;;;;;12.83;95.16;100663.81;5057449;28;20162;-87
2022/09/15 05:20:14;;;;;;;2.00;1.90;;;;;;;12.80;95.18;100661.28;5056035;28;20057;-90
2022/09/15 05:22:40;;;;;;;2.20;2.00;;;;;;;12.79;95.16;100667.41;5055580;28;20025;-90
2022/09/15 05:25:05;;;;;;;2.67;2.40;;;;;;;12.77;95.25;100659.63;5055467;28;20031;-90
2022/09/15 05:27:31;;;;;;;2.63;2.17;;;;;;;12.78;95.18;100665.69;5055285;28;20028;-90
2022/09/15 05:29:57;;;;;;;3.33;2.20;;;;;;;12.79;95.18;100673.47;5055683;28;20059;-90
2022/09/15 05:32:22;;;;;;;2.33;2.13;;;;;;;12.79;95.24;100676.09;5055145;28;20032;-90
2022/09/15 05:34:47;;;;;;;2.30;2.10;;;;;;;12.81;95.17;100676.03;5063950;28;20024;-90
2022/09/15 05:37:13;;;;;;;2.50;2.20;;;;;;;12.82;95.21;100681.22;5069194;28;20033;-91
2022/09/15 05:39:38;;;;;;;2.57;2.37;;;;;;;12.81;95.36;100676.91;5054651;28;20033;-91
2022/09/15 05:42:04;;;;;;;2.40;2.17;;;;;;;12.83;95.41;100677.69;5055478;28;20076;-90
2022/09/15 05:44:43;;;;;;;3.00;2.37;;;;;;;12.86;95.38;100684.59;5055024;28;20063;-90
2022/09/15 05:47:09;;;;;;;2.67;2.20;;;;;;;12.87;95.30;100691.50;5055631;28;20063;-90
2022/09/15 05:49:34;;;;;;;3.70;2.37;;;;;;;12.90;95.47;100690.56;5055442;28;20404;-91
2022/09/15 05:52:00;;;;;;;2.93;2.30;;;;;;;12.93;95.29;100700.91;5054216;28;20053;-88
2022/09/15 05:54:26;;;;;;;3.03;2.33;;;;;;;12.96;95.44;100700.78;5053659;28;20123;-89
2022/09/15 05:56:51;;;;;;;2.30;2.10;;;;;;;12.99;95.28;100698.09;5053628;28;20021;-88
2022/09/15 05:59:16;;;;;;;2.27;2.07;;;;;;;13.02;95.48;100700.63;5054403;28;20051;-86
2022/09/15 06:01:42;;;;;;;2.37;2.10;;;;;;;13.05;95.08;100705.78;5053658;28;20021;-87
2022/09/15 06:04:07;;;;;;;2.10;1.83;;;;;;;13.09;95.61;100716.97;5054387;28;20053;-84
2022/09/15 06:06:32;;;;;;;2.70;2.20;;;;;;;13.11;95.32;100702.16;5072883;28;20040;-85
2022/09/15 06:08:58;;;;;;;2.50;2.10;;;;;;;13.15;95.44;100711.56;5073317;28;20031;-87
2022/09/15 06:11:27;;;;;;;2.30;2.00;;;;;;;13.18;95.28;100710.59;5074200;28;20025;-87
2022/09/15 06:13:53;;;;;;;2.40;2.20;;;;;;;13.21;95.40;100715.75;5072228;28;20021;-86
2022/09/15 06:16:20;;;;;;;2.37;2.17;;;;;;;13.25;95.46;100714.78;5073665;28;20036;-88
2022/09/15 06:18:48;;;;;;;2.42;2.08;;;;;;;13.29;95.57;100709.44;5073572;28;20036;-89
2022/09/15 06:21:22;;;;;;;2.95;2.33;;;;;;;13.33;95.61;100718.00;5073700;28;20362;-86
2022/09/15 06:23:56;;;;;;;2.15;1.98;;;;;;;13.35;95.58;100713.59;5073490;28;20029;-86
2022/09/15 06:26:23;;;;;;;2.75;2.08;;;;;;;13.37;95.35;100716.16;5071996;28;20425;-86
2022/09/15 06:28:51;;;;;;;2.22;2.03;;;;;;;13.38;95.47;100721.34;5072641;28;20094;-87
2022/09/15 06:31:17;;;;;;;2.13;1.90;;;;;;;13.43;95.30;100721.25;5072970;28;20029;-84
2022/09/15 06:33:49;;;;;;;2.53;2.13;;;;;;;13.48;95.49;100728.94;5053299;28;20040;-87
2022/09/15 06:36:16;;;;;;;2.75;2.20;;;;;;;13.51;95.55;100723.63;5053439;28;20039;-88
2022/09/15 06:38:42;;;;;;;2.35;2.15;;;;;;;13.54;95.26;100720.91;5053033;28;20024;-87
2022/09/15 06:41:08;;;;;;;2.10;1.90;;;;;;;13.59;95.49;100726.84;5053170;28;20033;-87
2022/09/15 06:43:35;;;;;;;2.45;1.98;;;;;;;13.64;95.67;100732.78;5064248;28;20068;-87
2022/09/15 06:46:22;;;;;;;2.28;2.08;;;;;;;13.69;95.55;100736.09;5072701;28;20091;-86
2022/09/15 06:48:48;;;;;;;2.17;1.80;;;;;;;13.73;95.42;100737.75;5067715;28;20021;-87
2022/09/15 06:51:16;;;;;;;2.53;2.20;;;;;;;13.78;95.49;100739.34;5057642;28;20024;-87
2022/09/15 06:53:41;;;;;;;2.50;2.10;;;;;;;13.81;95.33;100747.06;5051751;28;20259;-87
2022/09/15 06:56:15;;;;;;;2.30;2.10;;;;;;;13.83;95.25;100742.66;5052236;28;20083;-87
2022/09/15 06:58:42;;;;;;;2.15;1.95;;;;;;;13.84;95.21;100749.59;5071220;28;20556;-87
2022/09/15 07:01:08;;;;;;;;;;;;;;;13.87;95.36;100749.47;5063940;28;20021;-87
2022/09/15 07:03:35;;;;;;;2.00;1.80;;;;;;;13.94;95.60;100755.38;5052434;28;19920;-87
2022/09/15 07:06:02;;;;;;;2.92;2.00;;;;;;;14.07;95.82;100761.09;5052185;28;20021;-87
2022/09/15 07:08:27;;;;;;;2.08;1.88;;;;;;;14.24;95.69;100760.56;5052053;28;20040;-87
2022/09/15 07:10:53;;;;;;;2.07;1.87;;;;;;;14.39;95.37;100761.81;5051842;28;20384;-87
2022/09/15 07:13:19;;;;;;;2.45;2.00;;;;;;;14.44;95.07;100768.59;5052906;28;20021;-86
2022/09/15 07:15:56;;;;;;;1.90;1.80;;;;;;;14.51;94.97;100764.03;5052367;28;20052;-87
2022/09/15 07:18:22;;;;;;;2.83;1.80;;;;;;;14.54;94.77;100758.66;5052085;28;20025;-87
2022/09/15 07:20:48;;;;;;;2.10;1.90;;;;;;;14.59;94.88;100768.97;5052905;28;20162;-87
2022/09/15 07:23:13;;;;;;;2.07;1.90;;;;;;;14.64;95.02;100772.28;5064101;28;20516;-89
2022/09/15 07:25:44;;;;;;;2.07;1.90;;;;;;;14.70;94.66;100774.72;5072850;28;20024;-89
2022/09/15 07:28:13;;;;;;;2.25;2.03;;;;;;;14.78;94.74;100774.47;5073506;28;20382;-89
2022/09/15 07:30:39;;;;;;;2.10;1.90;;;;;;;14.84;94.76;100776.88;5073116;28;20024;-89
2022/09/15 07:33:06;;;;;;;4.20;2.83;;;;;;;14.85;94.99;100781.19;5072635;28;20024;-89
2022/09/15 07:35:31;;;;;;;2.75;2.28;;;;;;;14.86;94.75;100780.28;5071311;28;20036;-89
2022/09/15 07:37:56;;;;;;;2.30;2.10;;;;;;;14.87;94.37;100778.53;5072185;28;20033;-89
2022/09/15 07:40:22;;;;;;;2.80;2.20;;;;;;;14.90;94.47;100783.66;5072470;28;20021;-89
2022/09/15 07:42:47;;;;;;;2.47;2.00;;;;;;;14.93;94.36;100781.78;5073010;28;20044;-89
2022/09/15 07:45:12;;;;;;;2.23;2.03;;;;;;;14.97;94.50;100788.59;5072159;28;20025;-89
2022/09/15 07:47:38;;;;;;;2.10;1.90;;;;;;;15.02;94.46;100790.19;5073085;28;20063;-89
2022/09/15 07:50:05;;;;;;;2.00;1.90;;;;;;;15.07;94.48;100785.69;5073178;28;20025;-89
2022/09/15 07:52:31;;;;;;;2.05;1.85;;;;;;;15.08;94.57;100796.06;5072026;28;20060;-90
2022/09/15 07:54:56;;;;;;;1.80;1.70;;;;;;;15.11;94.22;100795.09;5072729;28;20538;-90
2022/09/15 07:57:21;;;;;;;2.23;1.80;;;;;;;15.12;94.16;100795.06;5073424;28;20491;-89
2022/09/15 07:59:47;;;;;;;2.10;1.90;;;;;;;15.15;94.29;100799.31;5072340;28;20025;-90
2022/09/15 08:02:17;;;;;;;1.80;1.70;;;;;;;15.18;94.09;100799.22;5073081;28;20024;-91
2022/09/15 08:04:43;;;;;;;2.00;1.80;;;;;;;15.21;94.08;100806.94;5072969;28;20020;-88
2022/09/15 08:07:08;;;;;;;2.20;2.00;;;;;;;15.22;94.16;100808.66;5056276;28;20036;-89
2022/09/15 08:09:36;;;;;;;2.47;1.90;;;;;;;15.22;94.00;100811.25;5053048;28;20115;-88
2022/09/15 08:12:01;;;;;;;2.08;1.88;;;;;;;15.22;93.89;100805.19;5053280;28;20487;-88
2022/09/15 08:14:27;;;;;;;1.90;1.70;;;;;;;15.25;94.13;100808.56;5051899;28;20096;-87
2022/09/15 08:16:52;;;;;;;1.50;1.40;;;;;;;15.29;93.92;100810.16;5051764;28;20041;-87
2022/09/15 08:19:19;;;;;;;1.83;1.67;;;;;;;15.36;94.01;100813.41;5052095;28;20486;-85
2022/09/15 08:21:44;;;;;;;1.70;1.60;;;;;;;15.44;94.31;100811.38;5074374;28;20532;-87
2022/09/15 08:24:10;;;;;;;2.00;1.80;;;;;;;15.51;94.04;100816.34;5075764;28;20056;-87
2022/09/15 08:26:37;;;;;;;2.00;1.80;;;;;;;15.55;93.82;100810.97;5075639;28;20032;-88
2022/09/15 08:29:02;;;;;;;2.80;2.22;;;;;;;15.57;93.10;100814.38;5075563;28;20103;-87
2022/09/15 08:31:28;;;;;;;2.70;2.00;;;;;;;15.60;93.08;100816.00;5076025;28;20052;-88
2022/09/15 08:33:54;;;;;;;2.20;1.93;;;;;;;15.64;93.24;100814.16;5075698;28;20381;-87
2022/09/15 08:36:19;;;;;;;2.17;1.98;;;;;;;15.67;93.18;100824.50;5075062;28;20400;-88
2022/09/15 08:38:45;;;;;;;1.83;1.73;;;;;;;15.68;93.13;100827.06;5074903;28;20131;-88
2022/09/15 08:41:21;;;;;;;1.83;1.60;;;;;;;15.70;93.04;100829.63;5076187;28;20461;-88
2022/09/15 08:44:00;;;;;;;1.58;1.48;;;;;;;15.69;92.94;100826.16;5075869;28;20032;-88
2022/09/15 08:46:38;;;;;;;1.60;1.50;;;;;;;15.70;92.75;100829.63;5074505;28;20037;-88
2022/09/15 08:49:24;;;;;;;1.80;1.70;;;;;;;15.72;92.93;100827.81;5075589;28;20515;-88
2022/09/15 08:51:51;;;;;;;3.35;2.30;;;;;;;15.70;92.49;100829.63;5075645;28;20025;-88
2022/09/15 08:54:27;;;;;;;2.42;2.13;;;;;;;15.74;92.83;100836.47;5075899;28;20036;-88
2022/09/15 08:56:55;;;;;;;2.17;1.90;;;;;;;15.79;92.81;100836.28;5075116;28;20025;-89
2022/09/15 08:59:20;;;;;;;2.08;1.80;;;;;;;15.84;92.79;100837.84;5075682;28;20055;-87
2022/09/15 09:01:55;;;;;;;1.80;1.70;;;;;;;15.93;92.75;100841.88;5075513;28;20060;-89
2022/09/15 09:04:20;;;;;;;3.05;1.90;;;;;;;16.08;92.66;100852.69;5074870;28;20024;-88
2022/09/15 09:06:57;;;;;;;2.10;1.90;;;;;;;16.19;92.80;100851.38;5075002;28;20107;-89
2022/09/15 09:09:44;;;;;;;2.17;1.95;;;;;;;16.35;92.51;100863.84;5075011;28;20074;-89
2022/09/15 09:12:46;;;;;;;2.10;1.90;;;;;;;16.40;92.12;100864.53;5075366;28;20025;-88
2022/09/15 09:15:37;;;;;;;1.63;1.45;;;;;;;16.41;92.03;100863.63;5075145;28;20047;-87
2022/09/15 09:18:08;;;;;;;1.70;1.60;;;;;;;16.40;91.89;100867.16;5074688;28;20032;-88
2022/09/15 09:20:46;;;;;;;1.63;1.52;;;;;;;16.37;91.69;100875.13;5075119;28;20108;-87
2022/09/15 09:23:14;;;;;;;1.50;1.40;;;;;;;16.31;91.48;100870.97;5074873;28;20025;-88
2022/09/15 09:25:41;;;;;;;1.95;1.70;;;;;;;16.30;91.42;100873.66;5075056;28;20028;-89
2022/09/15 09:28:22;;;;;;;1.67;1.58;;;;;;;16.32;91.44;100877.09;5075346;28;20028;-88
2022/09/15 09:30:48;;;;;;;1.60;1.50;;;;;;;16.30;91.10;100871.88;5074350;28;20028;-89
2022/09/15 09:33:37;;;;;;;3.20;1.90;;;;;;;16.28;90.73;100873.69;5059457;28;20021;-89
2022/09/15 09:36:02;;;;;;;3.78;2.70;;;;;;;16.17;90.32;100871.50;5055109;28;20112;-89
2022/09/15 09:38:31;;;;;;;3.13;2.47;;;;;;;16.12;89.95;100875.22;5054585;28;20479;-89
2022/09/15 09:40:56;;;;;;;2.55;2.17;;;;;;;16.05;90.46;100874.59;5056526;28;20382;-89
2022/09/15 09:43:22;;;;;;;2.37;2.17;;;;;;;16.02;90.72;100875.56;5055292;28;20033;-89
2022/09/15 09:45:47;;;;;;;2.43;2.10;;;;;;;15.96;90.75;100872.31;5054093;28;20047;-89
2022/09/15 09:48:26;;;;;;;2.00;1.90;;;;;;;15.90;90.71;100871.63;5055307;28;20021;-89
2022/09/15 09:50:51;;;;;;;1.83;1.70;;;;;;;15.87;90.91;100874.38;5054742;28;20024;-92
2022/09/15 09:53:36;;;;;;;1.80;1.70;;;;;;;15.83;90.84;100875.38;5055027;28;20067;-93
2022/09/15 09:56:25;;;;;;;1.98;1.77;;;;;;;15.81;90.92;100881.56;5055375;28;20060;-94
2022/09/15 09:58:52;;;;;;;2.00;1.80;;;;;;;15.79;91.17;100883.38;5043087;28;20040;-86
2022/09/15 10:01:20;;;;;;;2.70;2.00;;;;;;;15.73;90.65;100882.69;5054730;28;20036;-86
2022/09/15 10:03:46;;;;;;;2.22;2.00;;;;;;;15.73;91.09;100877.44;5054396;28;20119;-90
2022/09/15 10:06:21;;;;;;;2.30;2.10;;;;;;;15.74;91.29;100873.94;5053980;28;20100;-88
2022/09/15 10:08:56;;;;;;;2.17;2.00;;;;;;;15.77;91.47;100874.72;5054942;28;20021;-90
2022/09/15 10:11:38;;;;;;;2.70;2.00;;;;;;;15.85;91.54;100880.56;5056778;28;20059;-96
2022/09/15 10:14:04;;;;;;;2.83;2.03;;;;;;;15.92;91.33;100881.19;5055239;28;20029;-95
2022/09/15 10:16:31;;;;;;;1.70;1.60;;;;;;;15.97;91.32;100885.34;5054594;28;20037;-94
2022/09/15 10:18:57;;;;;;;1.67;1.58;;;;;;;15.99;91.21;100886.16;5054892;28;20088;-94
2022/09/15 10:21:24;;;;;;;1.98;1.80;;;;;;;16.00;91.03;100873.91;5037104;28;20090;-88
2022/09/15 10:23:49;;;;;;;1.83;1.70;;;;;;;16.00;91.28;100873.91;5054091;28;20036;-87
2022/09/15 10:26:14;;;;;;;1.70;1.60;;;;;;;16.05;91.23;100877.22;5054658;28;20028;-86
2022/09/15 10:28:40;;;;;;;1.70;1.60;;;;;;;16.12;91.28;100870.81;5052489;28;20032;-86
2022/09/15 10:31:07;;;;;;;2.00;1.80;;;;;;;16.22;91.84;100866.09;5053404;28;20083;-87
2022/09/15 10:33:35;;;;;;;1.63;1.52;;;;;;;16.30;91.49;100868.44;5053191;28;20031;-86
2022/09/15 10:36:13;;;;;;;3.08;2.30;;;;;;;16.34;90.80;100863.00;5052544;28;20028;-86
2022/09/15 10:38:45;;;;;;;2.20;2.00;;;;;;;16.45;91.02;100865.19;5053058;28;20025;-86
2022/09/15 10:41:26;;;;;;;1.80;1.70;;;;;;;16.51;91.09;100862.34;5052649;28;20033;-86
2022/09/15 10:43:51;;;;;;;1.90;1.65;;;;;;;16.55;90.65;100870.91;5052308;28;20029;-87
2022/09/15 10:46:26;;;;;;;3.37;1.67;;;;;;;16.48;89.68;100883.41;5053351;28;20354;-87
2022/09/15 10:49:15;;;;;;;2.15;1.60;;;;;;;16.37;87.70;100896.06;5052587;28;20100;-92
2022/09/15 10:51:54;;;;;;;4.38;1.70;;;;;;;16.14;86.29;100899.59;5052206;28;20033;-88
2022/09/15 10:54:41;;;;;;;3.40;1.70;;;;;;;15.78;83.33;100902.59;5053344;28;20029;-87
2022/09/15 10:57:37;;;;;;;1.50;1.40;;;;;;;15.61;86.72;100909.28;5052423;28;20060;-88
2022/09/15 11:00:12;;;;;;;1.42;1.20;;;;;;;15.51;87.57;100900.94;5062032;28;20086;-88
2022/09/15 11:03:02;;;;;;;0.93;0.80;;;;;;;15.42;86.00;100907.31;5072082;28;20056;-87
2022/09/15 11:05:52;;;;;;;1.15;1.00;;;;;;;15.40;87.42;100909.13;5072581;28;20093;-87
2022/09/15 11:08:49;;;;;;;1.13;0.88;;;;;;;15.49;87.92;100896.63;5073038;28;20084;-87
2022/09/15 11:11:20;;;;;;;2.15;0.90;;;;;;;15.64;88.29;100895.25;5072400;28;20025;-87
2022/09/15 11:14:17;;;;;;;0.98;0.70;;;;;;;15.83;87.92;100898.91;5072990;28;20031;-88
2022/09/15 11:16:59;;;;;;;0.68;0.60;;;;;;;16.02;86.56;100890.41;5071550;28;20033;-87
2022/09/15 11:19:55;;;;;;;0.52;0.52;;;;;;;16.39;86.06;100888.16;5072595;28;20062;-88
2022/09/15 11:22:45;;;;;;;1.90;0.70;;;;;;;16.77;85.37;100886.66;5073001;28;20469;-88
2022/09/15 11:25:16;;;;;;;1.08;0.50;;;;;;;16.98;85.82;100884.94;5062463;28;20029;-88
2022/09/15 11:27:47;;;;;;;0.93;0.60;;;;;;;17.13;83.84;100875.56;5058471;28;20036;-89
2022/09/15 11:30:16;;;;;;;1.60;0.60;;;;;;;17.32;81.77;100881.78;5070974;28;20069;-88
2022/09/15 11:33:00;;;;;;;1.27;0.70;;;;;;;17.41;79.22;100887.50;5054007;28;20029;-85
2022/09/15 11:36:03;;;;;;;0.70;0.68;;;;;;;17.34;80.24;100880.78;5072100;28;20028;-86
2022/09/15 11:38:48;;;;;;;1.30;0.65;;;;;;;17.39;82.65;100891.97;5027875;28;20047;-86
2022/09/15 11:41:26;;;;;;;0.52;0.50;;;;;;;17.44;82.66;100900.50;5052771;28;20029;-86
2022/09/15 11:44:00;;;;;;;1.25;0.50;;;;;;;17.48;82.92;100900.34;5052886;28;20473;-87